sensor_id;sensor_type;location;lat;lon;timestamp;pressure;altitude;pressure_sealevel;temperature;humidity
68075;BME280;54864;52.002;5.468;2023-04-08T00:00:45;102138.75;;;9.18;82.61
68075;BME280;54864;52.002;5.468;2023-04-08T00:01:47;102128.19;;;9.21;83.14
68075;BME280;54864;52.002;5.468;2023-04-08T00:02:48;102131.72;;;9.20;82.88
68075;BME280;54864;52.002;5.468;2023-04-08T00:03:53;102137.88;;;9.19;82.85
68075;BME280;54864;52.002;5.468;2023-04-08T00:04:57;102141.41;;;9.16;82.94
68075;BME280;54864;52.002;5.468;2023-04-08T00:05:58;102126.38;;;9.23;82.55
68075;BME280;54864;52.002;5.468;2023-04-08T00:07:02;102132.41;;;9.30;82.36
68075;BME280;54864;52.002;5.468;2023-04-08T00:08:04;102132.38;;;9.31;82.24
68075;BME280;54864;52.002;5.468;2023-04-08T00:09:06;102129.75;;;9.31;82.87
68075;BME280;54864;52.002;5.468;2023-04-08T00:10:10;102132.47;;;9.27;82.68
68075;BME280;54864;52.002;5.468;2023-04-08T00:11:12;102134.28;;;9.23;83.21
68075;BME280;54864;52.002;5.468;2023-04-08T00:12:13;102132.53;;;9.24;83.59
68075;BME280;54864;52.002;5.468;2023-04-08T00:13:14;102135.94;;;9.29;83.12
68075;BME280;54864;52.002;5.468;2023-04-08T00:14:16;102140.25;;;9.33;82.92
68075;BME280;54864;52.002;5.468;2023-04-08T00:15:18;102138.53;;;9.30;83.26
68075;BME280;54864;52.002;5.468;2023-04-08T00:16:20;102135.94;;;9.29;83.19
68075;BME280;54864;52.002;5.468;2023-04-08T00:17:21;102138.56;;;9.29;83.10
68075;BME280;54864;52.002;5.468;2023-04-08T00:18:23;102134.09;;;9.32;83.81
68075;BME280;54864;52.002;5.468;2023-04-08T00:19:24;102131.47;;;9.32;83.16
68075;BME280;54864;52.002;5.468;2023-04-08T00:20:26;102135.81;;;9.35;83.05
68075;BME280;54864;52.002;5.468;2023-04-08T00:21:27;102128.78;;;9.35;83.21
68075;BME280;54864;52.002;5.468;2023-04-08T00:22:30;102135.13;;;9.25;83.71
68075;BME280;54864;52.002;5.468;2023-04-08T00:23:35;102130.53;;;9.35;83.75
68075;BME280;54864;52.002;5.468;2023-04-08T00:24:36;102133.25;;;9.32;84.36
68075;BME280;54864;52.002;5.468;2023-04-08T00:25:37;102136.81;;;9.28;84.13
68075;BME280;54864;52.002;5.468;2023-04-08T00:26:39;102140.31;;;9.28;84.21
68075;BME280;54864;52.002;5.468;2023-04-08T00:27:40;102131.50;;;9.31;84.61
68075;BME280;54864;52.002;5.468;2023-04-08T00:28:41;102137.59;;;9.33;83.72
68075;BME280;54864;52.002;5.468;2023-04-08T00:29:42;102134.03;;;9.35;83.92
68075;BME280;54864;52.002;5.468;2023-04-08T00:30:45;102136.78;;;9.31;84.16
68075;BME280;54864;52.002;5.468;2023-04-08T00:31:48;102135.03;;;9.30;84.56
68075;BME280;54864;52.002;5.468;2023-04-08T00:32:52;102133.25;;;9.32;83.91
68075;BME280;54864;52.002;5.468;2023-04-08T00:33:53;102136.81;;;9.28;83.81
68075;BME280;54864;52.002;5.468;2023-04-08T00:34:55;102134.19;;;9.28;84.60
68075;BME280;54864;52.002;5.468;2023-04-08T00:35:56;102135.16;;;9.24;84.45
68075;BME280;54864;52.002;5.468;2023-04-08T00:36:58;102129.75;;;9.31;84.26
68075;BME280;54864;52.002;5.468;2023-04-08T00:37:58;102124.41;;;9.34;84.10
68075;BME280;54864;52.002;5.468;2023-04-08T00:39:00;102134.97;;;9.33;84.27
68075;BME280;54864;52.002;5.468;2023-04-08T00:40:04;102137.91;;;9.17;83.74
68075;BME280;54864;52.002;5.468;2023-04-08T00:41:06;102141.44;;;9.15;83.68
68075;BME280;54864;52.002;5.468;2023-04-08T00:42:07;102144.88;;;9.20;83.87
68075;BME280;54864;52.002;5.468;2023-04-08T00:43:09;102140.53;;;9.17;83.80
68075;BME280;54864;52.002;5.468;2023-04-08T00:44:12;102143.16;;;9.17;83.42
68075;BME280;54864;52.002;5.468;2023-04-08T00:45:13;102139.56;;;9.21;83.03
68075;BME280;54864;52.002;5.468;2023-04-08T00:46:16;102135.19;;;9.22;82.58
68075;BME280;54864;52.002;5.468;2023-04-08T00:47:18;102141.28;;;9.24;82.58
68075;BME280;54864;52.002;5.468;2023-04-08T00:48:21;102151.00;;;9.20;82.55
68075;BME280;54864;52.002;5.468;2023-04-08T00:49:23;102147.59;;;9.15;82.26
68075;BME280;54864;52.002;5.468;2023-04-08T00:50:24;102146.78;;;9.09;82.95
68075;BME280;54864;52.002;5.468;2023-04-08T00:51:26;102144.44;;;8.94;82.72
68075;BME280;54864;52.002;5.468;2023-04-08T00:52:26;102146.91;;;9.03;82.09
68075;BME280;54864;52.002;5.468;2023-04-08T00:53:29;102151.22;;;9.07;81.56
68075;BME280;54864;52.002;5.468;2023-04-08T00:54:31;102137.28;;;9.02;81.91
68075;BME280;54864;52.002;5.468;2023-04-08T00:55:32;102146.97;;;9.00;82.15
68075;BME280;54864;52.002;5.468;2023-04-08T00:56:34;102140.34;;;8.77;82.68
68075;BME280;54864;52.002;5.468;2023-04-08T00:57:36;102145.69;;;8.71;82.93
68075;BME280;54864;52.002;5.468;2023-04-08T00:58:38;102146.41;;;8.81;82.72
68075;BME280;54864;52.002;5.468;2023-04-08T00:59:41;102138.50;;;8.82;82.68
68075;BME280;54864;52.002;5.468;2023-04-08T01:00:50;102142.00;;;8.83;82.14
68075;BME280;54864;52.002;5.468;2023-04-08T01:02:01;102148.13;;;8.83;81.66
68075;BME280;54864;52.002;5.468;2023-04-08T01:03:15;102148.97;;;8.84;81.46
68075;BME280;54864;52.002;5.468;2023-04-08T01:04:27;102150.84;;;8.77;81.34
68075;BME280;54864;52.002;5.468;2023-04-08T01:05:38;102153.66;;;8.67;81.48
68075;BME280;54864;52.002;5.468;2023-04-08T01:06:48;102157.31;;;8.56;81.75
68075;BME280;54864;52.002;5.468;2023-04-08T01:07:52;102155.59;;;8.55;82.24
68075;BME280;54864;52.002;5.468;2023-04-08T01:08:53;102154.78;;;8.50;81.77
68075;BME280;54864;52.002;5.468;2023-04-08T01:09:56;102157.41;;;8.52;82.32
68075;BME280;54864;52.002;5.468;2023-04-08T01:11:00;102152.13;;;8.53;82.12
68075;BME280;54864;52.002;5.468;2023-04-08T01:12:05;102161.81;;;8.50;82.17
68075;BME280;54864;52.002;5.468;2023-04-08T01:13:08;102160.88;;;8.54;82.19
68075;BME280;54864;52.002;5.468;2023-04-08T01:14:19;102147.75;;;8.52;81.98
68075;BME280;54864;52.002;5.468;2023-04-08T01:15:20;102154.78;;;8.50;81.53
68075;BME280;54864;52.002;5.468;2023-04-08T01:16:24;102160.16;;;8.41;82.57
68075;BME280;54864;52.002;5.468;2023-04-08T01:17:28;102158.41;;;8.40;81.91
68075;BME280;54864;52.002;5.468;2023-04-08T01:18:32;102160.19;;;8.40;81.75
68075;BME280;54864;52.002;5.468;2023-04-08T01:19:38;102164.53;;;8.42;81.97
68075;BME280;54864;52.002;5.468;2023-04-08T01:20:41;102160.16;;;8.41;81.95
68075;BME280;54864;52.002;5.468;2023-04-08T01:21:42;102157.63;;;8.34;81.34
68075;BME280;54864;52.002;5.468;2023-04-08T01:22:57;102155.91;;;8.31;81.62
68075;BME280;54864;52.002;5.468;2023-04-08T01:24:07;102156.91;;;8.22;81.51
68075;BME280;54864;52.002;5.468;2023-04-08T01:25:27;102156.13;;;8.16;81.81
68075;BME280;54864;52.002;5.468;2023-04-08T01:26:34;102157.78;;;8.21;81.72
68075;BME280;54864;52.002;5.468;2023-04-08T01:27:36;102161.22;;;8.25;81.43
68075;BME280;54864;52.002;5.468;2023-04-08T01:28:38;102160.41;;;8.21;81.71
68075;BME280;54864;52.002;5.468;2023-04-08T01:29:43;102161.25;;;8.23;81.40
68075;BME280;54864;52.002;5.468;2023-04-08T01:30:45;102158.66;;;8.22;81.42
68075;BME280;54864;52.002;5.468;2023-04-08T01:31:48;102159.56;;;8.19;81.82
68075;BME280;54864;52.002;5.468;2023-04-08T01:32:50;102157.03;;;8.13;82.11
68075;BME280;54864;52.002;5.468;2023-04-08T01:33:53;102162.22;;;8.16;82.45
68075;BME280;54864;52.002;5.468;2023-04-08T01:34:55;102161.28;;;8.22;82.61
68075;BME280;54864;52.002;5.468;2023-04-08T01:36:01;102166.56;;;8.19;82.79
68075;BME280;54864;52.002;5.468;2023-04-08T01:37:03;102161.44;;;8.10;83.52
68075;BME280;54864;52.002;5.468;2023-04-08T01:38:09;102164.91;;;8.13;84.14
68075;BME280;54864;52.002;5.468;2023-04-08T01:39:14;102167.53;;;8.13;83.55
68075;BME280;54864;52.002;5.468;2023-04-08T01:40:24;102165.63;;;8.24;83.93
68075;BME280;54864;52.002;5.468;2023-04-08T01:41:26;102166.47;;;8.26;83.43
68075;BME280;54864;52.002;5.468;2023-04-08T01:42:31;102167.38;;;8.24;83.11
68075;BME280;54864;52.002;5.468;2023-04-08T01:43:34;102166.50;;;8.23;83.23
68075;BME280;54864;52.002;5.468;2023-04-08T01:44:39;102175.50;;;8.07;84.17
68075;BME280;54864;52.002;5.468;2023-04-08T01:45:41;102172.19;;;7.93;84.71
68075;BME280;54864;52.002;5.468;2023-04-08T01:46:44;102166.75;;;8.05;85.34
68075;BME280;54864;52.002;5.468;2023-04-08T01:47:45;102170.28;;;8.04;84.74
68075;BME280;54864;52.002;5.468;2023-04-08T01:48:48;102171.19;;;8.02;84.51
68075;BME280;54864;52.002;5.468;2023-04-08T01:49:51;102165.09;;;8.00;84.50
68075;BME280;54864;52.002;5.468;2023-04-08T01:50:54;102176.44;;;8.02;84.77
68075;BME280;54864;52.002;5.468;2023-04-08T01:51:57;102176.53;;;7.94;84.24
68075;BME280;54864;52.002;5.468;2023-04-08T01:53:00;102170.31;;;8.03;84.34
68075;BME280;54864;52.002;5.468;2023-04-08T01:54:02;102169.47;;;8.01;84.46
68075;BME280;54864;52.002;5.468;2023-04-08T01:55:04;102176.53;;;7.95;84.48
68075;BME280;54864;52.002;5.468;2023-04-08T01:56:10;102179.13;;;7.99;84.13
68075;BME280;54864;52.002;5.468;2023-04-08T01:57:16;102182.66;;;7.94;84.70
68075;BME280;54864;52.002;5.468;2023-04-08T01:58:21;102175.50;;;8.07;84.34
68075;BME280;54864;52.002;5.468;2023-04-08T01:59:28;102169.34;;;8.10;84.15
68075;BME280;54864;52.002;5.468;2023-04-08T02:00:33;102180.06;;;7.93;84.05
68075;BME280;54864;52.002;5.468;2023-04-08T02:01:37;102169.50;;;7.98;84.47
68075;BME280;54864;52.002;5.468;2023-04-08T02:02:41;102170.47;;;7.90;85.06
68075;BME280;54864;52.002;5.468;2023-04-08T02:03:43;102163.28;;;8.03;84.69
68075;BME280;54864;52.002;5.468;2023-04-08T02:04:45;102161.63;;;7.96;84.37
68075;BME280;54864;52.002;5.468;2023-04-08T02:05:48;102163.44;;;7.92;84.55
68075;BME280;54864;52.002;5.468;2023-04-08T02:06:50;102168.72;;;7.89;84.19
68075;BME280;54864;52.002;5.468;2023-04-08T02:07:51;102171.34;;;7.91;84.19
68075;BME280;54864;52.002;5.468;2023-04-08T02:08:53;102163.41;;;7.95;84.47
68075;BME280;54864;52.002;5.468;2023-04-08T02:09:55;102167.81;;;7.92;85.03
68075;BME280;54864;52.002;5.468;2023-04-08T02:10:58;102162.47;;;8.00;84.97
68075;BME280;54864;52.002;5.468;2023-04-08T02:11:59;102155.44;;;8.00;84.58
68075;BME280;54864;52.002;5.468;2023-04-08T02:13:01;102163.34;;;8.00;84.53
68075;BME280;54864;52.002;5.468;2023-04-08T02:14:07;102165.22;;;7.90;84.76
68075;BME280;54864;52.002;5.468;2023-04-08T02:15:09;102159.06;;;7.93;84.82
68075;BME280;54864;52.002;5.468;2023-04-08T02:16:15;102163.31;;;8.02;84.75
68075;BME280;54864;52.002;5.468;2023-04-08T02:17:24;102157.16;;;8.04;84.64
68075;BME280;54864;52.002;5.468;2023-04-08T02:18:26;102170.38;;;7.98;84.84
68075;BME280;54864;52.002;5.468;2023-04-08T02:19:30;102167.72;;;8.00;85.04
68075;BME280;54864;52.002;5.468;2023-04-08T02:20:37;102168.47;;;8.08;84.37
68075;BME280;54864;52.002;5.468;2023-04-08T02:21:43;102167.00;;;7.88;84.55
68075;BME280;54864;52.002;5.468;2023-04-08T02:22:48;102167.69;;;8.01;85.08
68075;BME280;54864;52.002;5.468;2023-04-08T02:23:51;102165.91;;;8.03;84.33
68075;BME280;54864;52.002;5.468;2023-04-08T02:24:54;102167.69;;;8.03;84.65
68075;BME280;54864;52.002;5.468;2023-04-08T02:25:57;102159.78;;;8.04;84.38
68075;BME280;54864;52.002;5.468;2023-04-08T02:26:59;102163.22;;;8.09;84.78
68075;BME280;54864;52.002;5.468;2023-04-08T02:28:03;102171.97;;;8.10;84.73
68075;BME280;54864;52.002;5.468;2023-04-08T02:29:11;102165.03;;;8.04;84.93
68075;BME280;54864;52.002;5.468;2023-04-08T02:30:14;102172.97;;;8.00;85.85
68075;BME280;54864;52.002;5.468;2023-04-08T02:31:16;102177.41;;;7.94;85.84
68075;BME280;54864;52.002;5.468;2023-04-08T02:32:19;102175.50;;;8.06;85.14
68075;BME280;54864;52.002;5.468;2023-04-08T02:33:21;102173.72;;;8.09;85.39
68075;BME280;54864;52.002;5.468;2023-04-08T02:34:26;102179.88;;;8.07;85.49
68075;BME280;54864;52.002;5.468;2023-04-08T02:35:28;102178.00;;;8.16;84.89
68075;BME280;54864;52.002;5.468;2023-04-08T02:36:34;102171.81;;;8.20;84.58
68075;BME280;54864;52.002;5.468;2023-04-08T02:37:34;102180.47;;;8.27;84.11
68075;BME280;54864;52.002;5.468;2023-04-08T02:38:37;102178.75;;;8.26;84.31
68075;BME280;54864;52.002;5.468;2023-04-08T02:39:37;102175.22;;;8.27;83.57
68075;BME280;54864;52.002;5.468;2023-04-08T02:40:39;102176.41;;;8.05;84.89
68075;BME280;54864;52.002;5.468;2023-04-08T02:41:43;102182.59;;;8.01;85.48
68075;BME280;54864;52.002;5.468;2023-04-08T02:42:44;102179.03;;;8.05;85.58
68075;BME280;54864;52.002;5.468;2023-04-08T02:43:45;102178.88;;;8.15;85.73
68075;BME280;54864;52.002;5.468;2023-04-08T02:44:49;102180.75;;;8.07;85.26
68075;BME280;54864;52.002;5.468;2023-04-08T02:45:50;102191.34;;;8.00;85.72
68075;BME280;54864;52.002;5.468;2023-04-08T02:46:52;102175.50;;;8.06;85.67
68075;BME280;54864;52.002;5.468;2023-04-08T02:47:53;102172.00;;;8.07;85.72
68075;BME280;54864;52.002;5.468;2023-04-08T02:48:55;102178.06;;;8.10;85.63
68075;BME280;54864;52.002;5.468;2023-04-08T02:49:55;102182.34;;;8.17;85.07
68075;BME280;54864;52.002;5.468;2023-04-08T02:50:57;102179.66;;;8.23;85.06
68075;BME280;54864;52.002;5.468;2023-04-08T02:51:58;102181.34;;;8.27;83.90
68075;BME280;54864;52.002;5.468;2023-04-08T02:52:59;102175.25;;;8.24;84.45
68075;BME280;54864;52.002;5.468;2023-04-08T02:54:00;102186.59;;;8.27;84.93
68075;BME280;54864;52.002;5.468;2023-04-08T02:55:03;102176.94;;;8.28;84.54
68075;BME280;54864;52.002;5.468;2023-04-08T02:56:09;102176.13;;;8.24;84.34
68075;BME280;54864;52.002;5.468;2023-04-08T02:57:10;102184.84;;;8.26;84.42
68075;BME280;54864;52.002;5.468;2023-04-08T02:58:12;102186.63;;;8.24;85.01
68075;BME280;54864;52.002;5.468;2023-04-08T02:59:16;102194.44;;;8.34;84.43
68075;BME280;54864;52.002;5.468;2023-04-08T03:00:18;102185.63;;;8.36;83.55
68075;BME280;54864;52.002;5.468;2023-04-08T03:01:22;102183.97;;;8.27;84.50
68075;BME280;54864;52.002;5.468;2023-04-08T03:02:24;102182.22;;;8.28;84.50
68075;BME280;54864;52.002;5.468;2023-04-08T03:03:25;102191.09;;;8.19;84.61
68075;BME280;54864;52.002;5.468;2023-04-08T03:04:28;102184.06;;;8.21;84.93
68075;BME280;54864;52.002;5.468;2023-04-08T03:05:32;102188.53;;;8.15;85.59
68075;BME280;54864;52.002;5.468;2023-04-08T03:06:34;102182.41;;;8.13;85.08
68075;BME280;54864;52.002;5.468;2023-04-08T03:07:35;102188.44;;;8.21;84.87
68075;BME280;54864;52.002;5.468;2023-04-08T03:08:36;102186.13;;;7.98;86.14
68075;BME280;54864;52.002;5.468;2023-04-08T03:09:37;102187.75;;;8.07;85.92
68075;BME280;54864;52.002;5.468;2023-04-08T03:10:41;102187.75;;;8.08;86.28
68075;BME280;54864;52.002;5.468;2023-04-08T03:11:42;102194.84;;;8.00;85.95
68075;BME280;54864;52.002;5.468;2023-04-08T03:12:44;102199.19;;;8.03;85.81
68075;BME280;54864;52.002;5.468;2023-04-08T03:13:46;102188.88;;;7.89;86.27
68075;BME280;54864;52.002;5.468;2023-04-08T03:14:47;102191.53;;;7.84;86.59
68075;BME280;54864;52.002;5.468;2023-04-08T03:15:50;102196.72;;;7.90;86.66
68075;BME280;54864;52.002;5.468;2023-04-08T03:16:51;102195.06;;;7.83;87.52
68075;BME280;54864;52.002;5.468;2023-04-08T03:17:52;102198.78;;;7.62;87.39
68075;BME280;54864;52.002;5.468;2023-04-08T03:18:53;102200.81;;;7.35;88.33
68075;BME280;54864;52.002;5.468;2023-04-08T03:19:55;102196.44;;;7.34;89.64
68075;BME280;54864;52.002;5.468;2023-04-08T03:20:55;102205.09;;;7.45;90.61
68075;BME280;54864;52.002;5.468;2023-04-08T03:21:58;102200.47;;;7.67;88.91
68075;BME280;54864;52.002;5.468;2023-04-08T03:22:59;102206.66;;;7.61;88.81
68075;BME280;54864;52.002;5.468;2023-04-08T03:24:01;102197.81;;;7.70;88.12
68075;BME280;54864;52.002;5.468;2023-04-08T03:25:01;102196.84;;;7.77;87.92
68075;BME280;54864;52.002;5.468;2023-04-08T03:26:03;102191.56;;;7.80;88.21
68075;BME280;54864;52.002;5.468;2023-04-08T03:27:04;102199.56;;;7.71;88.65
68075;BME280;54864;52.002;5.468;2023-04-08T03:28:07;102199.56;;;7.71;88.16
68075;BME280;54864;52.002;5.468;2023-04-08T03:29:08;102195.22;;;7.68;88.69
68075;BME280;54864;52.002;5.468;2023-04-08T03:30:10;102187.22;;;7.77;88.29
68075;BME280;54864;52.002;5.468;2023-04-08T03:31:12;102196.81;;;7.83;87.73
68075;BME280;54864;52.002;5.468;2023-04-08T03:32:14;102195.19;;;7.70;87.94
68075;BME280;54864;52.002;5.468;2023-04-08T03:33:18;102198.91;;;7.49;88.51
68075;BME280;54864;52.002;5.468;2023-04-08T03:34:20;102197.06;;;7.58;88.08
68075;BME280;54864;52.002;5.468;2023-04-08T03:35:20;102193.41;;;7.73;87.92
68075;BME280;54864;52.002;5.468;2023-04-08T03:36:22;102197.69;;;7.79;87.48
68075;BME280;54864;52.002;5.468;2023-04-08T03:37:24;102199.38;;;7.89;87.08
68075;BME280;54864;52.002;5.468;2023-04-08T03:38:25;102194.97;;;7.89;87.02
68075;BME280;54864;52.002;5.468;2023-04-08T03:39:26;102193.16;;;7.96;86.00
68075;BME280;54864;52.002;5.468;2023-04-08T03:40:27;102189.63;;;7.97;86.22
68075;BME280;54864;52.002;5.468;2023-04-08T03:41:32;102197.50;;;7.99;86.24
68075;BME280;54864;52.002;5.468;2023-04-08T03:42:33;102196.75;;;7.87;85.84
68075;BME280;54864;52.002;5.468;2023-04-08T03:43:35;102199.50;;;7.74;85.74
68075;BME280;54864;52.002;5.468;2023-04-08T03:44:36;102202.09;;;7.81;86.47
68075;BME280;54864;52.002;5.468;2023-04-08T03:45:38;102201.94;;;7.93;86.02
68075;BME280;54864;52.002;5.468;2023-04-08T03:46:40;102196.66;;;7.97;84.96
68075;BME280;54864;52.002;5.468;2023-04-08T03:47:45;102192.41;;;7.86;85.41
68075;BME280;54864;52.002;5.468;2023-04-08T03:48:45;102202.19;;;7.71;85.98
68075;BME280;54864;52.002;5.468;2023-04-08T03:49:47;102205.59;;;7.79;85.76
68075;BME280;54864;52.002;5.468;2023-04-08T03:50:48;102200.22;;;7.89;85.65
68075;BME280;54864;52.002;5.468;2023-04-08T03:51:50;102202.03;;;7.86;86.29
68075;BME280;54864;52.002;5.468;2023-04-08T03:52:51;102203.03;;;7.73;85.57
68075;BME280;54864;52.002;5.468;2023-04-08T03:53:53;102213.50;;;7.74;86.04
68075;BME280;54864;52.002;5.468;2023-04-08T03:54:54;102211.72;;;7.78;86.21
68075;BME280;54864;52.002;5.468;2023-04-08T03:55:56;102211.72;;;7.76;86.70
68075;BME280;54864;52.002;5.468;2023-04-08T03:56:57;102206.56;;;7.70;86.60
68075;BME280;54864;52.002;5.468;2023-04-08T03:58:00;102211.72;;;7.76;86.38
68075;BME280;54864;52.002;5.468;2023-04-08T03:59:00;102211.69;;;7.79;85.77
68075;BME280;54864;52.002;5.468;2023-04-08T04:00:03;102216.94;;;7.79;86.31
68075;BME280;54864;52.002;5.468;2023-04-08T04:01:11;102222.34;;;7.66;86.33
68075;BME280;54864;52.002;5.468;2023-04-08T04:02:14;102221.59;;;7.56;86.50
68075;BME280;54864;52.002;5.468;2023-04-08T04:03:15;102217.94;;;7.71;86.36
68075;BME280;54864;52.002;5.468;2023-04-08T04:04:17;102222.38;;;7.62;86.53
68075;BME280;54864;52.002;5.468;2023-04-08T04:05:21;102226.69;;;7.68;86.38
68075;BME280;54864;52.002;5.468;2023-04-08T04:06:23;102212.63;;;7.74;85.79
68075;BME280;54864;52.002;5.468;2023-04-08T04:07:24;102224.97;;;7.66;85.93
68075;BME280;54864;52.002;5.468;2023-04-08T04:08:25;102225.00;;;7.62;85.84
68075;BME280;54864;52.002;5.468;2023-04-08T04:09:26;102224.09;;;7.65;85.99
68075;BME280;54864;52.002;5.468;2023-04-08T04:10:28;102228.47;;;7.66;86.08
68075;BME280;54864;52.002;5.468;2023-04-08T04:11:28;102231.97;;;7.65;85.97
68075;BME280;54864;52.002;5.468;2023-04-08T04:12:33;102231.09;;;7.68;85.52
68075;BME280;54864;52.002;5.468;2023-04-08T04:13:34;102228.53;;;7.61;85.65
68075;BME280;54864;52.002;5.468;2023-04-08T04:14:35;102233.75;;;7.63;85.65
68075;BME280;54864;52.002;5.468;2023-04-08T04:15:37;102233.84;;;7.55;85.85
68075;BME280;54864;52.002;5.468;2023-04-08T04:16:39;102229.34;;;7.65;86.31
68075;BME280;54864;52.002;5.468;2023-04-08T04:17:41;102236.25;;;7.74;85.38
68075;BME280;54864;52.002;5.468;2023-04-08T04:18:43;102242.41;;;7.73;86.00
68075;BME280;54864;52.002;5.468;2023-04-08T04:19:49;102241.50;;;7.74;86.07
68075;BME280;54864;52.002;5.468;2023-04-08T04:20:52;102247.63;;;7.74;86.61
68075;BME280;54864;52.002;5.468;2023-04-08T04:21:53;102246.88;;;7.64;85.39
68075;BME280;54864;52.002;5.468;2023-04-08T04:22:55;102246.94;;;7.57;86.22
68075;BME280;54864;52.002;5.468;2023-04-08T04:23:56;102256.44;;;7.69;85.99
68075;BME280;54864;52.002;5.468;2023-04-08T04:25:01;102248.56;;;7.70;85.84
68075;BME280;54864;52.002;5.468;2023-04-08T04:26:07;102246.16;;;7.47;85.71
68075;BME280;54864;52.002;5.468;2023-04-08T04:27:09;102256.84;;;7.29;86.89
68075;BME280;54864;52.002;5.468;2023-04-08T04:28:09;102255.84;;;7.41;86.54
68075;BME280;54864;52.002;5.468;2023-04-08T04:29:11;102252.41;;;7.34;87.05
68075;BME280;54864;52.002;5.468;2023-04-08T04:30:12;102256.84;;;7.29;87.74
68075;BME280;54864;52.002;5.468;2023-04-08T04:31:18;102255.91;;;7.33;87.70
68075;BME280;54864;52.002;5.468;2023-04-08T04:32:20;102253.25;;;7.39;87.72
68075;BME280;54864;52.002;5.468;2023-04-08T04:33:23;102263.94;;;7.12;88.45
68075;BME280;54864;52.002;5.468;2023-04-08T04:34:24;102263.19;;;6.96;88.57
68075;BME280;54864;52.002;5.468;2023-04-08T04:35:28;102263.16;;;6.99;89.81
68075;BME280;54864;52.002;5.468;2023-04-08T04:36:31;102260.38;;;7.22;88.82
68075;BME280;54864;52.002;5.468;2023-04-08T04:37:33;102262.09;;;7.27;88.08
68075;BME280;54864;52.002;5.468;2023-04-08T04:38:36;102257.03;;;7.02;88.44
68075;BME280;54864;52.002;5.468;2023-04-08T04:39:38;102257.94;;;6.96;89.04
68075;BME280;54864;52.002;5.468;2023-04-08T04:40:39;102265.66;;;7.14;89.15
68075;BME280;54864;52.002;5.468;2023-04-08T04:41:41;102263.91;;;7.19;88.66
68075;BME280;54864;52.002;5.468;2023-04-08T04:42:43;102263.84;;;7.27;87.96
68075;BME280;54864;52.002;5.468;2023-04-08T04:43:45;102269.06;;;7.30;87.34
68075;BME280;54864;52.002;5.468;2023-04-08T04:44:46;102271.66;;;7.33;87.31
68075;BME280;54864;52.002;5.468;2023-04-08T04:45:49;102262.06;;;7.32;87.76
68075;BME280;54864;52.002;5.468;2023-04-08T04:46:49;102271.63;;;7.36;87.66
68075;BME280;54864;52.002;5.468;2023-04-08T04:47:51;102266.34;;;7.39;87.24
68075;BME280;54864;52.002;5.468;2023-04-08T04:48:53;102275.09;;;7.40;87.13
68075;BME280;54864;52.002;5.468;2023-04-08T04:49:55;102275.09;;;7.41;87.88
68075;BME280;54864;52.002;5.468;2023-04-08T04:50:57;102280.38;;;7.35;87.14
68075;BME280;54864;52.002;5.468;2023-04-08T04:51:59;102272.69;;;7.11;88.07
68075;BME280;54864;52.002;5.468;2023-04-08T04:53:00;102277.19;;;6.95;88.21
68075;BME280;54864;52.002;5.468;2023-04-08T04:54:02;102275.41;;;6.98;88.75
68075;BME280;54864;52.002;5.468;2023-04-08T04:55:03;102277.03;;;7.15;88.50
68075;BME280;54864;52.002;5.468;2023-04-08T04:56:05;102272.78;;;6.98;88.84
68075;BME280;54864;52.002;5.468;2023-04-08T04:57:09;102273.56;;;7.11;88.82
68075;BME280;54864;52.002;5.468;2023-04-08T04:58:11;102278.03;;;6.95;88.36
68075;BME280;54864;52.002;5.468;2023-04-08T04:59:11;102277.97;;;7.08;88.53
68075;BME280;54864;52.002;5.468;2023-04-08T05:00:14;102277.19;;;6.95;88.07
68075;BME280;54864;52.002;5.468;2023-04-08T05:01:15;102275.34;;;7.08;88.13
68075;BME280;54864;52.002;5.468;2023-04-08T05:02:17;102278.09;;;6.89;87.81
68075;BME280;54864;52.002;5.468;2023-04-08T05:03:20;102277.09;;;7.07;87.70
68075;BME280;54864;52.002;5.468;2023-04-08T05:04:23;102279.69;;;7.09;87.33
68075;BME280;54864;52.002;5.468;2023-04-08T05:05:24;102274.44;;;7.09;87.68
68075;BME280;54864;52.002;5.468;2023-04-08T05:06:26;102278.97;;;6.87;87.70
68075;BME280;54864;52.002;5.468;2023-04-08T05:07:26;102286.81;;;6.93;88.00
68075;BME280;54864;52.002;5.468;2023-04-08T05:08:28;102285.88;;;7.02;87.98
68075;BME280;54864;52.002;5.468;2023-04-08T05:09:32;102278.78;;;7.13;87.38
68075;BME280;54864;52.002;5.468;2023-04-08T05:10:34;102279.72;;;7.04;87.67
68075;BME280;54864;52.002;5.468;2023-04-08T05:11:34;102282.28;;;7.15;87.60
68075;BME280;54864;52.002;5.468;2023-04-08T05:12:39;102284.84;;;7.24;86.78
68075;BME280;54864;52.002;5.468;2023-04-08T05:13:39;102290.16;;;7.16;87.49
68075;BME280;54864;52.002;5.468;2023-04-08T05:14:41;102285.81;;;7.09;87.45
68075;BME280;54864;52.002;5.468;2023-04-08T05:15:45;102287.53;;;7.18;87.31
68075;BME280;54864;52.002;5.468;2023-04-08T05:16:47;102291.94;;;7.10;87.15
68075;BME280;54864;52.002;5.468;2023-04-08T05:17:48;102289.28;;;7.16;87.24
68075;BME280;54864;52.002;5.468;2023-04-08T05:18:50;102295.41;;;7.12;87.77
68075;BME280;54864;52.002;5.468;2023-04-08T05:19:52;102291.88;;;7.22;86.93
68075;BME280;54864;52.002;5.468;2023-04-08T05:20:53;102297.06;;;7.28;86.13
68075;BME280;54864;52.002;5.468;2023-04-08T05:21:55;102294.53;;;7.13;86.60
68075;BME280;54864;52.002;5.468;2023-04-08T05:22:56;102292.78;;;7.18;86.80
68075;BME280;54864;52.002;5.468;2023-04-08T05:23:57;102297.16;;;7.10;86.74
68075;BME280;54864;52.002;5.468;2023-04-08T05:24:59;102294.63;;;6.99;87.87
68075;BME280;54864;52.002;5.468;2023-04-08T05:26:00;102301.53;;;7.11;87.54
68075;BME280;54864;52.002;5.468;2023-04-08T05:27:02;102308.44;;;7.25;86.25
68075;BME280;54864;52.002;5.468;2023-04-08T05:28:03;102304.03;;;7.30;85.20
68075;BME280;54864;52.002;5.468;2023-04-08T05:29:05;102311.91;;;7.30;85.63
68075;BME280;54864;52.002;5.468;2023-04-08T05:30:07;102305.75;;;7.35;85.45
68075;BME280;54864;52.002;5.468;2023-04-08T05:31:09;102303.16;;;7.31;86.06
68075;BME280;54864;52.002;5.468;2023-04-08T05:32:13;102306.59;;;7.40;85.84